This is the latest recevied weather packets stored in our database for station/object W3TMB. If no packets are shown the sender has not sent any weather packets the latest 1 day(s).
| Time | Temp. | Humidity | Pressure | Rain* | Wind** | Luminosity | Snow |
|---|---|---|---|---|---|---|---|
| 1778029732 | 17.22° C | 81% | 1005 hPa | 0 mm | - | 0 W/m² | - |
| 1778029127 | 17.78° C | 80% | 1004.8 hPa | 0 mm | - | 0 W/m² | - |
| 1778028824 | 17.78° C | 79% | 1004.7 hPa | 0 mm | - | 0 W/m² | - |
| 1778028519 | 17.78° C | 79% | 1004.9 hPa | 0 mm | - | 0 W/m² | - |
| 1778028218 | 18.33° C | 78% | 1005 hPa | 0 mm | - | 0 W/m² | - |
| 1778027913 | 18.33° C | 77% | 1005 hPa | 0 mm | - | 0 W/m² | - |
| 1778027003 | 18.89° C | 74% | 1004.9 hPa | 0 mm | - | 0 W/m² | - |
| 1778026396 | 19.44° C | 73% | 1004.7 hPa | 0 mm | - | 0 W/m² | - |
| 1778025487 | 20.56° C | 68% | 1004.3 hPa | 0 mm | - | 3 W/m² | - |
| 1778023368 | 22.22° C | 60% | 1004.2 hPa | 0 mm | - | 21 W/m² | - |
| 1778021854 | 22.22° C | 59% | 1004.7 hPa | 0 mm | - | 60 W/m² | - |
| 1778020945 | 22.78° C | 58% | 1004.3 hPa | 0 mm | - | 54 W/m² | - |
| 1778020338 | 22.78° C | 57% | 1004.6 hPa | 0 mm | - | 55 W/m² | - |
| 1778020034 | 22.78° C | 58% | 1004.5 hPa | 0 mm | - | 56 W/m² | - |
| 1778019730 | 22.78° C | 57% | 1004.5 hPa | 0 mm | - | 62 W/m² | - |
| 1778019124 | 23.33° C | 55% | 1004.5 hPa | 0 mm | - | 114 W/m² | - |
| 1778018821 | 23.89° C | 53% | 1004.7 hPa | 0 mm | - | 102 W/m² | - |
| 1778018519 | 23.89° C | 51% | 1004.4 hPa | 0 mm | - | 48 W/m² | - |
| 1778017309 | 24.44° C | 50% | 1004.2 hPa | 0 mm | - | 35 W/m² | - |
| 1778016703 | 25° C | 51% | 1004 hPa | 0 mm | - | 69 W/m² | - |
| 1778014884 | 25° C | 47% | 1003.5 hPa | 0 mm | - | 163 W/m² | - |
| 1778010642 | 25.56° C | 43% | 1003.3 hPa | 0 mm | - | 218 W/m² | - |
| 1778009128 | 26.11° C | 40% | 1003.5 hPa | 0 mm | - | 136 W/m² | - |
| 1778006095 | 27.78° C | 38% | 1003.3 hPa | 0 mm | - | 815 W/m² | - |
| 1778004579 | 27.78° C | 41% | 1003.9 hPa | 0 mm | - | 832 W/m² | - |
* Rain latest hour (hover to see other rain measurements)
** Current wind speed in m/s (hover to see current wind gust speed)